Grand Canyon Natl Park, Arizona
Current Conditions -  °F | °C
As of 10:54 PM on Thursday 30 Oct 2014 (Local Time) from KGCN Reporting Station
Clear Clear  
Wind Chill:   Ceiling: Unl
Heat Index:   Visibility: 10mi
Dew Point: -9°   Wind: 0mph
Humidity: 46%   Direction: NA
Pressure: 30.29"   Gusts: NA
Location:  36.2°N, 112.07°W
Report Text: KGCN 310554Z 00000KT 10SM CLR 02/M09 A3029 RMK AO2 SLP200 T00171089 10172 20017 50003
Loading
Personal Weather Stations






























Interactive Weather Map
Tropical Storm Tracking
New forecast layout! Learn more

10-Day Weather Forecast

Advertisements
Track Severe Weather on mobile